createdAt,value
2019-01-28T00:00:03.320Z,0.00
2019-01-28T00:01:03.127Z,0.00
2019-01-28T00:02:03.040Z,0.00
2019-01-28T00:03:03.139Z,0.00
2019-01-28T00:04:02.906Z,0.00
2019-01-28T00:05:02.938Z,0.00
2019-01-28T00:06:02.698Z,0.00
2019-01-28T00:07:02.747Z,0.00
2019-01-28T00:08:02.522Z,0.00
2019-01-28T00:09:02.601Z,0.00
2019-01-28T00:10:02.347Z,0.00
2019-01-28T00:11:02.373Z,0.00
2019-01-28T00:12:02.172Z,0.00
2019-01-28T00:13:02.175Z,0.00
2019-01-28T00:14:02.020Z,0.00
2019-01-28T00:15:01.981Z,0.00
2019-01-28T00:16:01.827Z,0.00
2019-01-28T00:17:01.791Z,0.00
2019-01-28T00:18:01.655Z,0.00
2019-01-28T00:19:01.842Z,0.00
2019-01-28T00:20:01.477Z,0.00
2019-01-28T00:21:01.409Z,0.00
2019-01-28T00:22:01.311Z,0.00
2019-01-28T00:23:01.217Z,0.00
2019-01-28T00:24:01.222Z,0.00
2019-01-28T00:25:01.067Z,0.00
2019-01-28T00:26:00.956Z,0.00
2019-01-28T00:27:01.038Z,0.00
2019-01-28T00:28:00.780Z,0.00
2019-01-28T00:29:00.696Z,0.00
2019-01-28T00:30:00.677Z,0.00
2019-01-28T00:31:00.527Z,0.00
2019-01-28T00:32:00.449Z,0.00
2019-01-28T00:33:00.488Z,0.00
2019-01-28T00:34:00.296Z,0.00
2019-01-28T00:35:00.276Z,0.00
2019-01-28T00:36:00.294Z,0.00
2019-01-28T00:37:00.005Z,0.00
2019-01-28T00:37:59.914Z,0.00
2019-01-28T00:38:59.889Z,0.00
2019-01-28T00:39:59.760Z,0.00
2019-01-28T00:40:59.652Z,0.00
2019-01-28T00:41:59.703Z,0.00
2019-01-28T00:42:59.481Z,0.00
2019-01-28T00:43:59.514Z,0.00
2019-01-28T00:44:59.334Z,0.00
2019-01-28T00:45:59.322Z,0.00
2019-01-28T00:46:59.134Z,0.00
2019-01-28T00:47:59.044Z,0.00
2019-01-28T00:48:59.133Z,0.00
2019-01-28T00:49:58.876Z,0.00
2019-01-28T00:50:58.799Z,0.00
2019-01-28T00:51:58.744Z,0.00
2019-01-28T00:52:58.609Z,0.00
2019-01-28T00:53:58.559Z,0.00
2019-01-28T00:54:58.436Z,0.00
2019-01-28T00:55:58.394Z,0.00
2019-01-28T00:56:58.267Z,0.00
2019-01-28T00:57:58.180Z,0.00
2019-01-28T00:58:58.177Z,0.00
2019-01-28T00:59:58.005Z,0.00
2019-01-28T01:00:57.934Z,0.00
2019-01-28T01:01:57.992Z,0.00
2019-01-28T01:02:57.742Z,0.00
2019-01-28T01:03:57.804Z,0.00
2019-01-28T01:04:57.573Z,0.00
2019-01-28T01:05:57.641Z,0.00
2019-01-28T01:06:57.397Z,0.00
2019-01-28T01:07:57.418Z,0.00
2019-01-28T01:08:57.219Z,0.00
2019-01-28T01:09:57.228Z,0.00
2019-01-28T01:10:57.064Z,0.00
2019-01-28T01:11:57.034Z,0.00
2019-01-28T01:12:56.873Z,0.00
2019-01-28T01:13:56.840Z,0.00
2019-01-28T01:14:56.701Z,0.00
2019-01-28T01:15:56.685Z,0.00
2019-01-28T01:16:56.525Z,0.00
2019-01-28T01:17:56.459Z,0.00
2019-01-28T01:18:56.355Z,0.00
2019-01-28T01:19:56.472Z,0.00
2019-01-28T01:20:56.318Z,0.00
2019-01-28T01:21:56.092Z,0.00
2019-01-28T01:22:56.083Z,0.00
2019-01-28T01:23:55.915Z,0.00
2019-01-28T01:24:55.833Z,0.00
2019-01-28T01:25:55.898Z,0.00
2019-01-28T01:26:55.668Z,0.00
2019-01-28T01:27:55.567Z,0.00
2019-01-28T01:28:55.507Z,0.00
2019-01-28T01:29:55.392Z,0.00
2019-01-28T01:30:55.313Z,0.00
2019-01-28T01:31:55.359Z,0.00
2019-01-28T01:32:55.131Z,0.00
2019-01-28T01:33:55.131Z,0.00
2019-01-28T01:34:54.960Z,0.00
2019-01-28T01:35:54.940Z,0.00
2019-01-28T01:36:54.806Z,0.00
2019-01-28T01:37:54.699Z,0.00
2019-01-28T01:38:54.755Z,0.00
2019-01-28T01:39:54.529Z,0.00
2019-01-28T01:40:54.435Z,0.00
2019-01-28T01:41:54.401Z,0.00
2019-01-28T01:42:54.268Z,0.00
2019-01-28T01:43:54.234Z,0.00
2019-01-28T01:44:54.180Z,0.00
2019-01-28T01:45:54.002Z,0.00
2019-01-28T01:46:53.949Z,0.00
2019-01-28T01:47:53.998Z,0.00
2019-01-28T01:48:53.742Z,0.00
2019-01-28T01:49:53.651Z,0.00
2019-01-28T01:50:53.605Z,0.00
2019-01-28T01:51:53.473Z,0.00
2019-01-28T01:52:53.408Z,0.00
2019-01-28T01:53:53.423Z,0.00
2019-01-28T01:54:53.217Z,0.00
2019-01-28T01:55:53.229Z,0.00
2019-01-28T01:56:53.040Z,0.00
2019-01-28T01:57:52.965Z,0.00
2019-01-28T01:58:53.043Z,0.00
2019-01-28T01:59:52.779Z,0.00
2019-01-28T02:00:52.692Z,0.00
2019-01-28T02:01:52.703Z,0.00
2019-01-28T02:02:52.537Z,0.00
2019-01-28T02:03:52.466Z,0.00
2019-01-28T02:04:52.374Z,0.00
2019-01-28T02:05:52.276Z,0.00
2019-01-28T02:06:52.170Z,0.00
2019-01-28T02:07:52.101Z,0.00
2019-01-28T02:08:52.086Z,0.00
2019-01-28T02:09:51.908Z,0.00
2019-01-28T02:10:51.820Z,0.00
2019-01-28T02:11:51.905Z,0.00
2019-01-28T02:12:51.680Z,0.00
2019-01-28T02:13:51.713Z,0.00
2019-01-28T02:14:51.468Z,0.00
2019-01-28T02:15:51.518Z,0.00
2019-01-28T02:16:51.302Z,0.00
2019-01-28T02:17:51.208Z,0.00
2019-01-28T02:18:51.160Z,0.00
2019-01-28T02:19:51.036Z,0.00
2019-01-28T02:20:50.945Z,0.00
2019-01-28T02:21:50.943Z,0.00
2019-01-28T02:22:50.770Z,0.00
2019-01-28T02:23:50.788Z,0.00
2019-01-28T02:24:50.599Z,0.00
2019-01-28T02:25:50.565Z,0.00
2019-01-28T02:26:50.423Z,0.00
2019-01-28T02:27:50.341Z,0.00
2019-01-28T02:28:50.273Z,0.00
2019-01-28T02:29:50.177Z,0.00
2019-01-28T02:30:50.073Z,0.00
2019-01-28T02:31:50.191Z,0.00
2019-01-28T02:32:49.904Z,0.00
2019-01-28T02:33:49.809Z,0.00
2019-01-28T02:34:49.831Z,0.00
2019-01-28T02:35:49.634Z,0.00
2019-01-28T02:36:49.552Z,0.00
2019-01-28T02:37:49.619Z,0.00
2019-01-28T02:38:49.374Z,0.00
2019-01-28T02:39:49.304Z,0.00
2019-01-28T02:40:49.228Z,0.00
2019-01-28T02:41:49.109Z,0.00
2019-01-28T02:42:49.029Z,0.00
2019-01-28T02:43:49.042Z,0.00
2019-01-28T02:44:48.862Z,0.00
2019-01-28T02:45:48.853Z,0.00
2019-01-28T02:46:48.682Z,0.00
2019-01-28T02:47:48.584Z,0.00
2019-01-28T02:48:48.664Z,0.00
2019-01-28T02:49:48.424Z,0.00
2019-01-28T02:50:48.323Z,0.00
2019-01-28T02:51:48.278Z,0.00
2019-01-28T02:52:48.147Z,0.00
2019-01-28T02:53:48.088Z,0.00
2019-01-28T02:54:47.985Z,0.00
2019-01-28T02:55:48.100Z,0.00
2019-01-28T02:56:47.803Z,0.00
2019-01-28T02:57:47.908Z,0.00
2019-01-28T02:58:47.629Z,0.00
2019-01-28T02:59:47.751Z,0.00
2019-01-28T03:00:47.449Z,0.00
2019-01-28T03:01:47.523Z,0.00
2019-01-28T03:02:47.272Z,0.00
2019-01-28T03:03:47.329Z,0.00
2019-01-28T03:04:47.096Z,0.00
2019-01-28T03:05:47.186Z,0.00
2019-01-28T03:06:46.928Z,0.00
2019-01-28T03:07:46.836Z,0.00
2019-01-28T03:08:46.957Z,0.00
2019-01-28T03:09:46.659Z,0.00
2019-01-28T03:10:46.595Z,0.00
2019-01-28T03:11:46.565Z,0.00
2019-01-28T03:12:46.398Z,0.00
2019-01-28T03:13:46.374Z,0.00
2019-01-28T03:14:46.227Z,0.00
2019-01-28T03:15:46.215Z,0.00
2019-01-28T03:16:46.050Z,0.00
2019-01-28T03:17:45.995Z,0.00
2019-01-28T03:18:45.870Z,0.00
2019-01-28T03:19:45.799Z,0.00
2019-01-28T03:20:45.697Z,0.00
2019-01-28T03:21:45.645Z,0.00
2019-01-28T03:22:45.533Z,0.00
2019-01-28T03:23:45.442Z,0.00
2019-01-28T03:24:45.423Z,0.00
2019-01-28T03:25:45.262Z,0.00
2019-01-28T03:26:45.199Z,0.00
2019-01-28T03:27:45.237Z,0.00
2019-01-28T03:28:45.013Z,0.00
2019-01-28T03:29:45.047Z,0.00
2019-01-28T03:30:44.821Z,0.00
2019-01-28T03:31:44.861Z,0.00
2019-01-28T03:32:44.660Z,0.00
2019-01-28T03:33:44.666Z,0.00
2019-01-28T03:34:44.469Z,0.00
2019-01-28T03:35:44.476Z,0.00
2019-01-28T03:36:44.300Z,0.00
2019-01-28T03:37:44.314Z,0.00
2019-01-28T03:38:44.119Z,0.00
2019-01-28T03:39:44.089Z,0.00
2019-01-28T03:40:43.941Z,0.00
2019-01-28T03:41:43.902Z,0.00
2019-01-28T03:42:43.784Z,0.00
2019-01-28T03:43:43.707Z,0.00
2019-01-28T03:44:43.591Z,0.00
2019-01-28T03:45:43.721Z,0.00
2019-01-28T03:46:43.420Z,0.00
2019-01-28T03:47:43.558Z,0.00
2019-01-28T03:48:43.243Z,0.00
2019-01-28T03:49:43.335Z,0.00
2019-01-28T03:50:43.071Z,0.00
2019-01-28T03:51:43.144Z,0.00
2019-01-28T03:52:42.921Z,0.00
2019-01-28T03:53:42.957Z,0.00
2019-01-28T03:54:42.714Z,0.00
2019-01-28T03:55:42.764Z,0.00
2019-01-28T03:56:42.537Z,0.00
2019-01-28T03:57:42.574Z,0.00
2019-01-28T03:58:42.383Z,0.00
2019-01-28T03:59:42.380Z,0.00
2019-01-28T04:00:42.193Z,0.00
2019-01-28T04:01:42.189Z,0.00
2019-01-28T04:02:42.016Z,0.00
2019-01-28T04:03:41.937Z,0.00
2019-01-28T04:04:42.001Z,0.00
2019-01-28T04:05:41.750Z,0.00
2019-01-28T04:06:41.667Z,0.00
2019-01-28T04:07:41.615Z,0.00
2019-01-28T04:08:41.501Z,0.00
2019-01-28T04:09:41.397Z,0.00
2019-01-28T04:10:41.425Z,0.00
2019-01-28T04:11:41.226Z,0.00
2019-01-28T04:12:41.140Z,0.00
2019-01-28T04:13:41.277Z,0.00
2019-01-28T04:14:40.964Z,0.00
2019-01-28T04:15:40.870Z,0.00
2019-01-28T04:16:40.853Z,0.00
2019-01-28T04:17:40.698Z,0.00
2019-01-28T04:18:40.665Z,0.00
2019-01-28T04:19:40.667Z,0.00
2019-01-28T04:20:40.430Z,0.00
2019-01-28T04:21:40.345Z,0.00
2019-01-28T04:22:40.279Z,0.00
2019-01-28T04:23:40.181Z,0.00
2019-01-28T04:24:40.292Z,0.00
2019-01-28T04:25:39.999Z,0.00
2019-01-28T04:26:40.100Z,0.00
2019-01-28T04:27:39.818Z,0.00
2019-01-28T04:28:39.757Z,0.00
2019-01-28T04:29:39.650Z,0.00
2019-01-28T04:30:39.719Z,0.00
2019-01-28T04:31:39.466Z,0.00
2019-01-28T04:32:39.380Z,0.00
2019-01-28T04:33:39.293Z,0.00
2019-01-28T04:34:39.377Z,0.00
2019-01-28T04:35:39.115Z,0.00
2019-01-28T04:36:39.028Z,0.00
2019-01-28T04:37:39.150Z,0.00
2019-01-28T04:38:38.858Z,0.00
2019-01-28T04:39:38.986Z,0.00
2019-01-28T04:40:38.683Z,0.00
2019-01-28T04:41:38.767Z,0.00
2019-01-28T04:42:38.502Z,0.00
2019-01-28T04:43:38.571Z,0.00
2019-01-28T04:44:38.351Z,0.00
2019-01-28T04:45:38.384Z,0.00
2019-01-28T04:46:38.150Z,0.00
2019-01-28T04:47:38.192Z,0.00
2019-01-28T04:48:37.978Z,0.00
2019-01-28T04:49:38.029Z,0.00
2019-01-28T04:50:37.807Z,0.00
2019-01-28T04:51:37.806Z,0.00
2019-01-28T04:52:37.624Z,0.00
2019-01-28T04:53:37.537Z,0.00
2019-01-28T04:54:37.652Z,0.00
2019-01-28T04:55:37.364Z,0.00
2019-01-28T04:56:37.271Z,0.00
2019-01-28T04:57:37.234Z,0.00
2019-01-28T04:58:37.099Z,0.00
2019-01-28T04:59:37.009Z,0.00
2019-01-28T05:00:37.081Z,0.00
2019-01-28T05:01:36.840Z,0.00
2019-01-28T05:02:36.746Z,0.00
2019-01-28T05:03:36.869Z,0.00
2019-01-28T05:04:36.581Z,0.00
2019-01-28T05:05:36.707Z,0.00
2019-01-28T05:06:36.395Z,0.00
2019-01-28T05:07:36.478Z,0.00
2019-01-28T05:08:36.226Z,0.00
2019-01-28T05:09:36.146Z,0.00
2019-01-28T05:10:36.061Z,0.00
2019-01-28T05:11:36.099Z,0.00
2019-01-28T05:12:35.869Z,0.00
2019-01-28T05:13:35.902Z,0.00
2019-01-28T05:14:35.691Z,0.00
2019-01-28T05:15:35.749Z,0.00
2019-01-28T05:16:35.530Z,0.00
2019-01-28T05:17:35.521Z,0.00
2019-01-28T05:18:35.345Z,0.00
2019-01-28T05:19:35.330Z,0.00
2019-01-28T05:20:35.184Z,0.00
2019-01-28T05:21:35.083Z,0.00
2019-01-28T05:22:35.006Z,0.00
2019-01-28T05:23:34.902Z,0.00
2019-01-28T05:24:34.954Z,0.00
2019-01-28T05:25:34.752Z,0.00
2019-01-28T05:26:34.642Z,0.00
2019-01-28T05:27:34.773Z,0.00
2019-01-28T05:28:34.461Z,0.00
2019-01-28T05:29:34.376Z,0.00
2019-01-28T05:30:34.379Z,0.00
2019-01-28T05:31:34.212Z,0.00
2019-01-28T05:32:34.113Z,0.00
2019-01-28T05:33:34.193Z,0.00
2019-01-28T05:34:33.942Z,0.00
2019-01-28T05:35:34.002Z,0.00
2019-01-28T05:36:33.774Z,0.00
2019-01-28T05:37:33.811Z,0.00
2019-01-28T05:38:33.582Z,0.00
2019-01-28T05:39:33.505Z,0.00
2019-01-28T05:40:33.410Z,0.00
2019-01-28T05:41:33.465Z,0.00
2019-01-28T05:42:33.252Z,0.00
2019-01-28T05:43:33.144Z,0.00
2019-01-28T05:44:33.085Z,0.00
2019-01-28T05:45:32.971Z,0.00
2019-01-28T05:46:32.897Z,0.00
2019-01-28T05:47:32.904Z,0.00
2019-01-28T05:48:32.705Z,0.00
2019-01-28T05:49:32.626Z,0.00
2019-01-28T05:50:32.667Z,0.00
2019-01-28T05:51:32.470Z,0.00
2019-01-28T05:52:32.476Z,0.00
2019-01-28T05:53:32.267Z,0.00
2019-01-28T05:54:32.180Z,0.00
2019-01-28T05:55:32.095Z,0.00
2019-01-28T05:56:32.017Z,0.00
2019-01-28T05:57:31.914Z,0.00
2019-01-28T05:58:31.831Z,0.00
2019-01-28T05:59:31.738Z,0.00
2019-01-28T06:00:31.663Z,0.00
2019-01-28T06:01:31.575Z,0.00
2019-01-28T06:02:31.574Z,0.00
2019-01-28T06:03:31.386Z,0.00
2019-01-28T06:04:31.380Z,0.00
2019-01-28T06:05:31.220Z,0.00
2019-01-28T06:06:31.154Z,0.00
2019-01-28T06:07:31.037Z,0.00
2019-01-28T06:08:30.963Z,0.00
2019-01-28T06:09:30.864Z,0.00
2019-01-28T06:10:30.780Z,0.00
2019-01-28T06:11:30.698Z,0.00
2019-01-28T06:12:30.604Z,0.00
2019-01-28T06:13:30.511Z,0.00
2019-01-28T06:14:30.419Z,0.00
2019-01-28T06:15:30.336Z,0.00
2019-01-28T06:16:30.259Z,0.00
2019-01-28T06:17:30.158Z,0.00
2019-01-28T06:18:30.082Z,0.00
2019-01-28T06:19:29.987Z,0.00
2019-01-28T06:20:29.902Z,0.00
2019-01-28T06:21:29.826Z,0.00
2019-01-28T06:22:29.726Z,0.00
2019-01-28T06:23:29.630Z,0.00
2019-01-28T06:24:29.548Z,0.00
2019-01-28T06:25:29.457Z,0.00
2019-01-28T06:26:29.419Z,0.00
2019-01-28T06:27:29.278Z,0.00
2019-01-28T06:28:29.206Z,0.00
2019-01-28T06:29:29.099Z,0.00
2019-01-28T06:30:29.018Z,0.00
2019-01-28T06:31:28.923Z,0.00
2019-01-28T06:32:28.857Z,0.00
2019-01-28T06:33:28.750Z,0.00
2019-01-28T06:34:28.691Z,0.00
2019-01-28T06:35:28.594Z,0.00
2019-01-28T06:36:28.520Z,0.00
2019-01-28T06:37:28.415Z,0.00
2019-01-28T06:38:28.338Z,0.00
2019-01-28T06:39:28.225Z,0.00
2019-01-28T06:40:28.142Z,0.00
2019-01-28T06:41:28.059Z,0.00
2019-01-28T06:42:27.994Z,0.00
2019-01-28T06:43:27.878Z,0.00
2019-01-28T06:44:27.790Z,0.00
2019-01-28T06:45:27.695Z,0.00
2019-01-28T06:46:27.621Z,4.00
2019-01-28T06:47:27.534Z,4.00
2019-01-28T06:48:27.444Z,0.00
2019-01-28T06:49:27.351Z,4.00
2019-01-28T06:50:27.272Z,4.00
2019-01-28T06:51:27.172Z,8.00
2019-01-28T06:52:27.104Z,8.00
2019-01-28T06:53:26.994Z,8.00
2019-01-28T06:54:26.913Z,12.00
2019-01-28T06:55:26.828Z,12.00
2019-01-28T06:56:26.735Z,8.00
2019-01-28T06:57:26.658Z,12.00
2019-01-28T06:58:26.612Z,16.00
2019-01-28T06:59:26.465Z,16.00
2019-01-28T07:00:26.379Z,20.00
2019-01-28T07:01:26.307Z,24.00
2019-01-28T07:02:26.213Z,24.00
2019-01-28T07:03:26.119Z,28.00
2019-01-28T07:04:26.033Z,36.00
2019-01-28T07:05:25.940Z,40.00
2019-01-28T07:06:25.856Z,52.00
2019-01-28T07:07:25.775Z,56.00
2019-01-28T07:08:25.680Z,44.00
2019-01-28T07:09:25.644Z,44.00
2019-01-28T07:10:25.506Z,64.00
2019-01-28T07:11:25.410Z,92.00
2019-01-28T07:12:25.346Z,136.00
2019-01-28T07:13:25.235Z,152.00
2019-01-28T07:14:25.160Z,164.00
2019-01-28T07:15:25.065Z,192.00
2019-01-28T07:16:24.979Z,180.00
2019-01-28T07:17:24.896Z,196.00
2019-01-28T07:18:24.799Z,184.00
2019-01-28T07:19:28.861Z,176.00
2019-01-28T07:20:24.619Z,220.00
2019-01-28T07:21:24.538Z,208.00
2019-01-28T07:22:24.461Z,224.00
2019-01-28T07:23:24.355Z,200.00
2019-01-28T07:24:24.278Z,256.00
2019-01-28T07:25:24.179Z,240.00
2019-01-28T07:26:24.090Z,228.00
2019-01-28T07:27:24.034Z,244.00
2019-01-28T07:28:23.918Z,280.00
2019-01-28T07:29:23.832Z,300.00
2019-01-28T07:30:23.749Z,316.00
2019-01-28T07:31:23.654Z,280.00
2019-01-28T07:32:23.579Z,288.00
2019-01-28T07:33:23.489Z,340.00
2019-01-28T07:34:23.389Z,420.00
2019-01-28T07:35:23.314Z,448.00
2019-01-28T07:36:23.221Z,448.00
2019-01-28T07:37:23.152Z,436.00
2019-01-28T07:38:23.037Z,492.00
2019-01-28T07:39:22.950Z,452.00
2019-01-28T07:40:22.873Z,512.00
2019-01-28T07:41:22.773Z,692.00
2019-01-28T07:42:22.702Z,668.00
2019-01-28T07:43:22.608Z,892.00
2019-01-28T07:44:22.510Z,836.00
2019-01-28T07:45:22.424Z,644.00
2019-01-28T07:46:22.343Z,516.00
2019-01-28T07:47:22.261Z,496.00
2019-01-28T07:48:22.166Z,584.00
2019-01-28T07:49:22.082Z,596.00
2019-01-28T07:50:21.992Z,664.00
2019-01-28T07:51:21.901Z,672.00
2019-01-28T07:52:21.841Z,640.00
2019-01-28T07:53:21.730Z,624.00
2019-01-28T07:54:21.645Z,744.00
2019-01-28T07:55:21.553Z,656.00
2019-01-28T07:56:21.465Z,784.00
2019-01-28T07:57:21.383Z,772.00
2019-01-28T07:58:21.286Z,828.00
2019-01-28T07:59:21.196Z,756.00
2019-01-28T08:00:21.106Z,648.00
2019-01-28T08:01:21.032Z,784.00
2019-01-28T08:02:20.947Z,740.00
2019-01-28T08:03:20.846Z,816.00
2019-01-28T08:04:20.761Z,800.00
2019-01-28T08:05:20.672Z,740.00
2019-01-28T08:06:20.589Z,700.00
2019-01-28T08:07:20.513Z,648.00
2019-01-28T08:08:20.408Z,592.00
2019-01-28T08:09:20.314Z,680.00
2019-01-28T08:10:20.233Z,672.00
2019-01-28T08:11:20.141Z,668.00
2019-01-28T08:12:20.082Z,836.00
2019-01-28T08:13:19.964Z,976.00
2019-01-28T08:14:19.882Z,908.00
2019-01-28T08:15:19.814Z,868.00
2019-01-28T08:16:19.705Z,924.00
2019-01-28T08:17:19.612Z,1120.00
2019-01-28T08:18:19.547Z,1088.00
2019-01-28T08:19:19.444Z,1372.00
2019-01-28T08:20:19.352Z,1648.00
2019-01-28T08:21:19.268Z,1900.00
2019-01-28T08:22:19.179Z,1728.00
2019-01-28T08:23:19.112Z,1644.00
2019-01-28T08:24:19.002Z,1592.00
2019-01-28T08:25:18.919Z,1564.00
2019-01-28T08:26:18.841Z,1760.00
2019-01-28T08:27:18.775Z,1752.00
2019-01-28T08:28:18.670Z,1680.00
2019-01-28T08:29:18.568Z,1544.00
2019-01-28T08:30:18.479Z,1336.00
2019-01-28T08:31:18.387Z,1176.00
2019-01-28T08:32:18.308Z,1092.00
2019-01-28T08:33:18.226Z,1360.00
2019-01-28T08:34:18.124Z,1236.00
2019-01-28T08:35:18.048Z,1272.00
2019-01-28T08:36:17.952Z,1292.00
2019-01-28T08:37:17.876Z,1248.00
2019-01-28T08:38:17.791Z,1308.00
2019-01-28T08:39:17.699Z,1444.00
2019-01-28T08:40:17.600Z,1384.00
2019-01-28T08:41:17.521Z,1688.00
2019-01-28T08:42:17.429Z,2128.00
2019-01-28T08:43:17.377Z,2412.00
2019-01-28T08:44:17.255Z,2520.00
2019-01-28T08:45:17.171Z,2372.00
2019-01-28T08:46:17.080Z,2596.00
2019-01-28T08:47:16.995Z,2292.00
2019-01-28T08:48:18.423Z,1900.00
2019-01-28T08:49:16.815Z,2108.00
2019-01-28T08:50:16.740Z,2952.00
2019-01-28T08:51:16.641Z,3464.00
2019-01-28T08:52:16.555Z,3284.00
2019-01-28T08:53:16.490Z,2840.00
2019-01-28T08:54:16.385Z,2268.00
2019-01-28T08:55:16.297Z,1960.00
2019-01-28T08:56:16.853Z,1868.00
2019-01-28T08:57:16.116Z,1804.00
2019-01-28T08:58:16.042Z,2040.00
2019-01-28T08:59:15.949Z,2236.00
2019-01-28T09:00:15.860Z,2360.00
2019-01-28T09:01:15.780Z,2540.00
2019-01-28T09:02:15.683Z,2604.00
2019-01-28T09:03:15.617Z,2212.00
2019-01-28T09:04:15.507Z,1832.00
2019-01-28T09:05:15.421Z,1568.00
2019-01-28T09:06:15.339Z,1884.00
2019-01-28T09:07:15.251Z,2352.00
2019-01-28T09:08:15.202Z,1996.00
2019-01-28T09:09:15.087Z,2448.00
2019-01-28T09:10:14.992Z,2688.00
2019-01-28T09:11:14.902Z,3452.00
2019-01-28T09:12:14.821Z,4184.00
2019-01-28T09:13:14.744Z,4124.00
2019-01-28T09:14:14.639Z,3488.00
2019-01-28T09:15:14.570Z,2976.00
2019-01-28T09:16:14.469Z,2864.00
2019-01-28T09:17:14.380Z,2684.00
2019-01-28T09:18:14.319Z,2852.00
2019-01-28T09:19:14.207Z,4020.00
2019-01-28T09:20:14.123Z,5112.00
2019-01-28T09:21:14.040Z,4376.00
2019-01-28T09:22:13.946Z,4624.00
2019-01-28T09:23:13.872Z,4432.00
2019-01-28T09:24:13.776Z,3748.00
2019-01-28T09:25:13.689Z,3456.00
2019-01-28T09:26:13.610Z,3240.00
2019-01-28T09:27:13.513Z,3292.00
2019-01-28T09:28:13.457Z,3316.00
2019-01-28T09:29:13.339Z,3332.00
2019-01-28T09:30:13.255Z,3044.00
2019-01-28T09:31:13.175Z,3008.00
2019-01-28T09:32:13.087Z,3544.00
2019-01-28T09:33:13.014Z,3736.00
2019-01-28T09:34:12.911Z,4192.00
2019-01-28T09:35:12.818Z,4484.00
2019-01-28T09:36:12.747Z,4596.00
2019-01-28T09:37:14.218Z,3740.00
2019-01-28T09:38:12.595Z,3132.00
2019-01-28T09:39:12.474Z,3836.00
2019-01-28T09:40:12.393Z,3620.00
2019-01-28T09:41:12.303Z,3056.00
2019-01-28T09:42:12.239Z,2980.00
2019-01-28T09:43:12.146Z,2836.00
2019-01-28T09:44:13.054Z,2948.00
2019-01-28T09:45:11.972Z,3468.00
2019-01-28T09:46:11.869Z,4704.00
2019-01-28T09:47:11.790Z,4380.00
2019-01-28T09:48:11.715Z,5344.00
2019-01-28T09:49:11.610Z,4128.00
2019-01-28T09:50:11.530Z,3828.00
2019-01-28T09:51:11.438Z,4228.00
2019-01-28T09:52:11.358Z,3556.00
2019-01-28T09:53:11.299Z,3800.00
2019-01-28T09:54:11.191Z,3696.00
2019-01-28T09:55:11.094Z,3452.00
2019-01-28T09:56:11.011Z,3756.00
2019-01-28T09:57:10.933Z,4020.00
2019-01-28T09:58:10.847Z,3460.00
2019-01-28T09:59:10.761Z,3536.00
2019-01-28T10:00:10.669Z,4332.00
2019-01-28T10:01:10.584Z,3984.00
2019-01-28T10:02:10.488Z,3388.00
2019-01-28T10:03:10.411Z,3376.00
2019-01-28T10:04:10.332Z,4088.00
2019-01-28T10:05:10.240Z,4448.00
2019-01-28T10:06:10.153Z,4720.00
2019-01-28T10:07:10.058Z,4900.00
2019-01-28T10:08:09.972Z,4456.00
2019-01-28T10:09:10.245Z,3976.00
2019-01-28T10:10:09.798Z,4732.00
2019-01-28T10:11:09.711Z,4564.00
2019-01-28T10:12:09.633Z,4676.00
2019-01-28T10:13:09.542Z,4052.00
2019-01-28T10:14:09.476Z,4332.00
2019-01-28T10:15:09.374Z,5936.00
2019-01-28T10:16:09.284Z,5580.00
2019-01-28T10:17:09.207Z,5448.00
2019-01-28T10:18:09.108Z,6244.00
2019-01-28T10:19:09.045Z,5484.00
2019-01-28T10:20:08.944Z,4448.00
2019-01-28T10:21:08.846Z,5056.00
2019-01-28T10:22:08.770Z,5672.00
2019-01-28T10:23:08.676Z,6184.00
2019-01-28T10:24:08.606Z,6372.00
2019-01-28T10:25:08.515Z,5684.00
2019-01-28T10:26:08.417Z,5832.00
2019-01-28T10:27:08.342Z,6896.00
2019-01-28T10:28:08.258Z,6888.00
2019-01-28T10:29:08.191Z,6904.00
2019-01-28T10:30:08.071Z,5904.00
2019-01-28T10:31:07.998Z,5960.00
2019-01-28T10:32:07.905Z,5912.00
2019-01-28T10:33:07.821Z,5596.00
2019-01-28T10:34:07.747Z,4908.00
2019-01-28T10:35:07.654Z,4704.00
2019-01-28T10:36:07.562Z,4852.00
2019-01-28T10:37:07.484Z,4632.00
2019-01-28T10:38:07.383Z,4980.00
2019-01-28T10:39:07.317Z,4892.00
2019-01-28T10:40:07.209Z,4996.00
2019-01-28T10:41:07.142Z,4264.00
2019-01-28T10:42:09.797Z,4240.00
2019-01-28T10:43:06.968Z,3956.00
2019-01-28T10:44:10.344Z,4004.00
2019-01-28T10:45:06.801Z,3664.00
2019-01-28T10:46:06.699Z,3792.00
2019-01-28T10:47:06.614Z,3476.00
2019-01-28T10:48:06.521Z,3992.00
2019-01-28T10:49:06.457Z,4124.00
2019-01-28T10:50:06.349Z,3916.00
2019-01-28T10:51:06.272Z,3676.00
2019-01-28T10:52:06.177Z,4120.00
2019-01-28T10:53:06.096Z,4236.00
2019-01-28T10:54:06.015Z,4440.00
2019-01-28T10:55:05.925Z,5480.00
2019-01-28T10:56:05.832Z,4960.00
2019-01-28T10:57:05.749Z,5528.00
2019-01-28T10:58:05.685Z,5048.00
2019-01-28T10:59:05.587Z,5032.00
2019-01-28T11:00:05.499Z,5292.00
2019-01-28T11:01:05.407Z,4848.00
2019-01-28T11:02:05.311Z,4928.00
2019-01-28T11:03:05.228Z,5468.00
2019-01-28T11:04:05.164Z,6124.00
2019-01-28T11:05:05.056Z,5756.00
2019-01-28T11:06:04.972Z,6064.00
2019-01-28T11:07:04.889Z,6584.00
2019-01-28T11:08:04.800Z,7756.00
2019-01-28T11:09:04.721Z,7952.00
2019-01-28T11:10:04.640Z,8184.00
2019-01-28T11:11:04.633Z,6632.00
2019-01-28T11:12:04.525Z,7268.00
2019-01-28T11:13:05.252Z,7140.00
2019-01-28T11:14:04.374Z,8700.00
2019-01-28T11:15:04.255Z,9012.00
2019-01-28T11:16:04.211Z,8320.00
2019-01-28T11:17:04.112Z,10448.00
2019-01-28T11:18:04.063Z,9900.00
2019-01-28T11:19:03.993Z,10416.00
2019-01-28T11:20:03.773Z,9336.00
2019-01-28T11:21:03.710Z,9424.00
2019-01-28T11:22:03.672Z,8488.00
2019-01-28T11:23:03.529Z,9672.00
2019-01-28T11:24:03.437Z,12932.00
2019-01-28T11:25:03.359Z,10760.00
2019-01-28T11:26:03.274Z,13108.00
2019-01-28T11:27:03.301Z,10720.00
2019-01-28T11:28:03.192Z,10208.00
2019-01-28T11:29:03.094Z,9832.00
2019-01-28T11:30:02.935Z,9552.00
2019-01-28T11:31:02.825Z,8212.00
2019-01-28T11:32:02.822Z,8940.00
2019-01-28T11:33:02.639Z,9988.00
2019-01-28T11:34:02.580Z,9944.00
2019-01-28T11:35:02.545Z,7504.00
2019-01-28T11:36:05.484Z,8544.00
2019-01-28T11:37:02.379Z,8736.00
2019-01-28T11:38:02.237Z,8696.00
2019-01-28T11:39:02.234Z,8652.00
2019-01-28T11:40:02.046Z,9364.00
2019-01-28T11:41:02.068Z,10068.00
2019-01-28T11:42:01.872Z,9376.00
2019-01-28T11:43:01.883Z,8904.00
2019-01-28T11:44:01.718Z,11864.00
2019-01-28T11:45:01.684Z,11876.00
2019-01-28T11:46:01.640Z,12736.00
2019-01-28T11:47:01.571Z,14188.00
2019-01-28T11:48:01.413Z,15560.00
2019-01-28T11:49:05.774Z,15472.00
2019-01-28T11:50:01.198Z,13012.00
2019-01-28T11:51:01.099Z,12532.00
2019-01-28T11:52:01.006Z,9436.00
2019-01-28T11:53:00.934Z,8492.00
2019-01-28T11:54:00.834Z,8968.00
2019-01-28T11:55:00.771Z,8184.00
2019-01-28T11:56:00.666Z,8140.00
2019-01-28T11:57:00.583Z,8164.00
2019-01-28T11:58:00.497Z,7048.00
2019-01-28T11:59:00.405Z,6292.00
2019-01-28T12:00:00.335Z,7112.00
2019-01-28T12:01:00.243Z,6936.00
2019-01-28T12:02:00.150Z,6300.00
2019-01-28T12:03:00.078Z,6996.00
2019-01-28T12:03:59.988Z,6568.00
2019-01-28T12:04:59.904Z,6304.00
2019-01-28T12:05:59.802Z,5824.00
2019-01-28T12:06:59.733Z,5564.00
2019-01-28T12:07:59.633Z,5844.00
2019-01-28T12:08:59.551Z,5152.00
2019-01-28T12:09:59.471Z,5152.00
2019-01-28T12:10:59.384Z,5548.00
2019-01-28T12:11:59.289Z,5796.00
2019-01-28T12:12:59.215Z,6648.00
2019-01-28T12:13:59.116Z,5784.00
2019-01-28T12:14:59.048Z,5528.00
2019-01-28T12:15:58.947Z,6332.00
2019-01-28T12:16:58.856Z,6216.00
2019-01-28T12:17:58.775Z,5952.00
2019-01-28T12:18:58.685Z,6400.00
2019-01-28T12:19:58.614Z,6940.00
2019-01-28T12:20:58.515Z,6060.00
2019-01-28T12:21:58.425Z,5892.00
2019-01-28T12:22:58.349Z,5912.00
2019-01-28T12:23:58.265Z,6336.00
2019-01-28T12:24:58.189Z,5708.00
2019-01-28T12:25:58.084Z,5172.00
2019-01-28T12:26:58.018Z,5204.00
2019-01-28T12:27:57.906Z,4184.00
2019-01-28T12:28:57.832Z,3932.00
2019-01-28T12:29:57.755Z,4868.00
2019-01-28T12:30:57.649Z,4360.00
2019-01-28T12:31:57.577Z,4284.00
2019-01-28T12:32:57.475Z,4984.00
2019-01-28T12:33:57.390Z,4944.00
2019-01-28T12:34:57.322Z,5840.00
2019-01-28T12:35:57.216Z,6728.00
2019-01-28T12:36:57.133Z,6948.00
2019-01-28T12:37:57.071Z,7756.00
2019-01-28T12:38:56.989Z,8452.00
2019-01-28T12:39:56.941Z,8544.00
2019-01-28T12:40:56.799Z,10432.00
2019-01-28T12:41:56.700Z,8656.00
2019-01-28T12:42:56.623Z,10956.00
2019-01-28T12:43:56.532Z,9160.00
2019-01-28T12:44:56.463Z,9772.00